createdAt,value
2023-02-16T00:11:33.945Z,164.10
2023-02-16T00:26:35.030Z,153.70
2023-02-16T00:41:35.301Z,123.50
2023-02-16T00:56:35.787Z,171.10
2023-02-16T01:11:36.412Z,231.70
2023-02-16T01:26:37.011Z,268.20
2023-02-16T01:41:37.637Z,179.80
2023-02-16T01:56:38.245Z,70.00
2023-02-16T02:11:40.143Z,51.70
2023-02-16T02:26:40.752Z,44.10
2023-02-16T02:41:41.425Z,44.10
2023-02-16T02:56:41.976Z,58.10
2023-02-16T03:11:45.201Z,54.30
2023-02-16T03:26:47.716Z,58.00
2023-02-16T03:41:48.250Z,55.40
2023-02-16T03:56:48.529Z,55.40
2023-02-16T04:11:49.077Z,49.30
2023-02-16T04:26:49.901Z,55.10
2023-02-16T04:41:50.743Z,57.40
2023-02-16T04:56:51.389Z,52.30
2023-02-16T05:11:51.572Z,52.50
2023-02-16T05:26:51.907Z,53.60
2023-02-16T05:41:52.802Z,48.50
2023-02-16T05:56:53.010Z,54.30
2023-02-16T06:11:53.629Z,48.10
2023-02-16T06:26:54.671Z,48.80
2023-02-16T06:41:54.831Z,56.40
2023-02-16T06:56:55.861Z,67.00
2023-02-16T07:11:56.436Z,65.10
2023-02-16T07:26:57.112Z,77.50
2023-02-16T07:41:58.530Z,113.30
2023-02-16T07:56:59.178Z,90.50
2023-02-16T08:11:59.757Z,80.40
2023-02-16T08:27:00.360Z,87.20
2023-02-16T08:42:01.377Z,83.30
2023-02-16T08:57:01.594Z,57.70
2023-02-16T09:12:02.147Z,45.00
2023-02-16T09:27:04.073Z,34.00
2023-02-16T09:42:05.071Z,35.50
2023-02-16T09:57:05.330Z,33.40
2023-02-16T10:12:05.876Z,43.90
2023-02-16T10:27:06.481Z,38.40
2023-02-16T10:42:07.075Z,38.80
2023-02-16T10:57:08.163Z,30.50
2023-02-16T11:12:08.283Z,40.70
2023-02-16T11:27:09.332Z,35.50
2023-02-16T11:42:09.889Z,53.70
2023-02-16T11:57:11.785Z,60.00
2023-02-16T12:12:12.361Z,45.70
2023-02-16T12:27:12.962Z,40.20
2023-02-16T12:42:13.139Z,35.80
2023-02-16T12:57:13.736Z,38.80
2023-02-16T13:12:14.327Z,43.40
2023-02-16T13:27:14.943Z,31.00
2023-02-16T13:42:15.949Z,34.20
2023-02-16T13:57:16.544Z,27.60
2023-02-16T14:12:17.131Z,27.30
2023-02-16T14:27:17.810Z,34.10
2023-02-16T14:42:17.946Z,27.40
2023-02-16T14:57:18.938Z,25.20
2023-02-16T15:12:20.128Z,31.10
2023-02-16T15:27:20.865Z,29.70
2023-02-16T15:42:22.403Z,23.70
2023-02-16T15:57:22.518Z,27.70
2023-02-16T16:12:24.161Z,21.60
2023-02-16T16:27:24.724Z,157.50
2023-02-16T16:42:25.352Z,66.70
2023-02-16T16:57:25.937Z,49.80
2023-02-16T17:12:26.949Z,44.80
2023-02-16T17:27:27.555Z,38.20
2023-02-16T17:42:28.293Z,39.40
2023-02-16T17:57:29.365Z,60.70
2023-02-16T18:12:31.492Z,50.50
2023-02-16T18:27:32.246Z,39.60
2023-02-16T18:42:32.462Z,37.20
2023-02-16T18:57:33.123Z,31.10
2023-02-16T19:12:33.676Z,54.40
2023-02-16T19:27:34.663Z,30.80
2023-02-16T19:42:35.287Z,23.70
2023-02-16T19:57:35.463Z,33.60
2023-02-16T20:12:36.107Z,24.20
2023-02-16T20:27:36.695Z,30.70
2023-02-16T20:42:37.286Z,30.40
2023-02-16T20:57:37.873Z,33.00
2023-02-16T21:12:38.932Z,31.70
2023-02-16T21:27:39.477Z,30.00
2023-02-16T21:42:40.092Z,28.80
2023-02-16T21:57:40.693Z,29.60
2023-02-16T22:12:41.307Z,30.60
2023-02-16T22:27:41.931Z,30.50
2023-02-16T22:42:42.562Z,32.80
2023-02-16T22:57:43.524Z,28.30
2023-02-16T23:12:44.349Z,31.10
2023-02-16T23:27:45.338Z,29.90
2023-02-16T23:42:45.510Z,32.00
2023-02-16T23:57:46.087Z,41.60
